Terminal Aerodrome Forecast
Issued by NWS

Home | Current Version | Previous Version | Text Only | Print | Product List | Glossary On
Versions: 1 2 3 4 5 6 7 8 9 10 11 12 13 14
000
FTUS45 KPSR 302324
TAFSDL
TAF
KSDL 302324Z 3100/3124 09006KT P6SM VCTS SCT090CB
      TEMPO 3100/3102 09015G22KT BKN090CB BKN150
     FM310300 10008KT P6SM BKN110 BKN150 BKN250
     FM311600 15007KT P6SM SCT110 SCT150 SCT250=

USA.gov is the U.S. government's official web portal to all federal, state and local government web resources and services.